Monday, November 20, 2017, 7:25 AM GMT
Back to Local

CYWA, Petawawa, Ont.

Location: , , Canada Lat: 45.95
Local Time: 7:25 AM GMT ( 7:25 GMT) Lon: -77.317
Time Zone: GMT Elev: 426 ft

Show me the last for .
Show Coded

Time T Td Feel RH Dir Speed Gust Alt SLP Vis Weather Sky Remarks
2017-11-20 07:00 18 10 7 72 290° 8 - 29.79 29.82 9 OVC029 None
2017-11-20 06:00 18 10 2 72 280° 9 17 29.77 29.80 9 OVC031 None
2017-11-20 05:00 19 10 9 67 290° 9 - 29.76 29.78 9 None
2017-11-20 04:00 19 12 7 73 290° 12 - 29.74 29.77 7 OVC021 None
2017-11-20 03:00 21 12 11 67 290° 9 - 29.73 29.75 9 OVC024 OVC081 None
2017-11-20 02:58 21 12 10 67 290° 10 - 29.73 - 9 OVC024 OVC081 None
2017-11-20 02:18 21 14 10 73 320° 10 - 29.72 - 9 SCT018 OVC037 OVC048 OVC081 None
2017-11-20 02:00 21 16 11 79 320° 9 - 29.71 29.74 8 None
2017-11-20 01:00 23 16 11 73 320° 13 - 29.69 29.71 9 OVC019 OVC067 OVC087 None
2017-11-20 00:25 25 18 16 73 310° 8 - 29.67 - 9 OVC023 OVC077 OVC091 None
2017-11-20 00:00 25 18 11 73 300° 9 17 29.67 29.69 9 FEW028 FEW077 OVC091 None
2017-11-19 23:00 25 19 15 79 290° 10 - 29.64 29.67 9 None
2017-11-19 22:00 27 19 17 73 290° 10 - 29.63 29.65 9 None
2017-11-19 21:01 27 19 16 73 300° 12 - 29.60 - 9 BKN023 OVC056 None
2017-11-19 21:00 27 19 16 73 300° 12 - 29.60 29.62 9 BKN025 OVC056 None
2017-11-19 20:35 27 19 13 73 300° 12 20 29.58 - 9 SCT026 OVC058 None
2017-11-19 20:00 28 21 16 74 310° 9 18 29.56 29.59 7 -SN None
2017-11-19 19:35 28 21 15 74 290° 12 20 29.55 - 9 -SN None
2017-11-19 19:00 28 21 15 74 310° 13 20 29.54 29.57 9 None
2017-11-19 18:49 28 21 15 74 300° 13 22 29.54 - 9 None
2017-11-19 18:00 30 21 18 68 300° 12 20 29.51 29.54 9 None
2017-11-19 17:00 30 25 21 80 290° 10 - 29.49 29.52 9 None
2017-11-19 16:00 30 23 16 74 300° 13 24 29.48 29.50 9 None
2017-11-19 15:00 28 23 17 79 310° 15 - 29.45 29.47 8 None
2017-11-19 14:00 28 21 15 74 310° 14 20 29.42 29.44 9 None
2017-11-19 13:38 28 21 15 74 310° 12 21 29.41 - 3 None
2017-11-19 13:00 27 21 12 79 320° 17 24 29.39 29.41 1 None
2017-11-19 12:37 27 21 13 79 310° 14 21 29.38 - 2 None
2017-11-19 12:00 27 21 12 79 310° 9 22 29.35 29.37 7 None
2017-11-19 11:00 27 23 17 86 310° 10 - 29.31 29.33 9 None
2017-11-19 10:49 27 21 12 79 320° 13 23 29.30 - 5 None
2017-11-19 10:47 27 23 12 86 320° 16 23 29.30 - 2 None
2017-11-19 10:37 27 23 14 86 320° 16 - 29.30 - 2 -SN None
2017-11-19 10:12 27 23 14 86 320° 16 - 29.29 - 1 -SN None
2017-11-19 10:04 27 23 13 86 310° 13 18 29.28 - 2 -SN None
2017-11-19 10:00 27 23 15 86 320° 15 - 29.28 29.30 1 -SN None
2017-11-19 09:49 27 25 14 92 320° 12 17 29.27 - 1 -SN None
2017-11-19 09:28 27 25 12 92 340° 15 23 29.27 - 0 -SN None
2017-11-19 09:25 27 25 12 92 330° 17 23 29.26 - 0 -SN None
2017-11-19 09:08 27 25 15 92 320° 14 - 29.27 - 1 -SN None
2017-11-19 09:00 28 25 18 86 320° 12 - 29.27 29.29 2 -SN None
2017-11-19 08:51 28 25 18 86 320° 13 - 29.27 - 1 -SN None
2017-11-19 08:35 28 25 16 86 320° 13 18 29.27 - 1 -SN None
2017-11-19 08:23 28 25 17 86 320° 14 - 29.27 - 0 -SN None
2017-11-19 08:00 28 27 17 92 320° 15 - 29.26 29.28 0 -SN BKN001 OVC007 None
2017-11-19 07:34 28 27 19 92 320° 10 - 29.27 - 0 -SN VV001 None

Support USWX by starting your Amazon purchase here.